sensor_id;sensor_type;location;lat;lon;timestamp;P1;durP1;ratioP1;P2;durP2;ratioP2
72427;SDS011;60419;48.880;18.036;2023-03-01T00:01:49;33.20;;;18.27;;
72427;SDS011;60419;48.880;18.036;2023-03-01T00:04:34;25.27;;;12.13;;
72427;SDS011;60419;48.880;18.036;2023-03-01T00:07:20;36.72;;;16.17;;
72427;SDS011;60419;48.880;18.036;2023-03-01T00:10:05;24.83;;;13.77;;
72427;SDS011;60419;48.880;18.036;2023-03-01T00:12:51;34.08;;;16.02;;
72427;SDS011;60419;48.880;18.036;2023-03-01T00:15:40;39.60;;;18.67;;
72427;SDS011;60419;48.880;18.036;2023-03-01T00:18:26;34.08;;;16.95;;
72427;SDS011;60419;48.880;18.036;2023-03-01T00:21:11;37.65;;;18.42;;
72427;SDS011;60419;48.880;18.036;2023-03-01T00:23:57;37.50;;;14.77;;
72427;SDS011;60419;48.880;18.036;2023-03-01T00:26:43;33.97;;;17.63;;
72427;SDS011;60419;48.880;18.036;2023-03-01T00:29:29;32.30;;;16.00;;
72427;SDS011;60419;48.880;18.036;2023-03-01T00:32:14;34.78;;;18.33;;
72427;SDS011;60419;48.880;18.036;2023-03-01T00:34:59;39.72;;;19.08;;
72427;SDS011;60419;48.880;18.036;2023-03-01T00:37:45;37.13;;;19.98;;
72427;SDS011;60419;48.880;18.036;2023-03-01T00:40:32;37.92;;;19.55;;
72427;SDS011;60419;48.880;18.036;2023-03-01T00:43:18;35.58;;;18.90;;
72427;SDS011;60419;48.880;18.036;2023-03-01T00:46:08;36.20;;;18.33;;
72427;SDS011;60419;48.880;18.036;2023-03-01T00:48:55;38.03;;;19.88;;
72427;SDS011;60419;48.880;18.036;2023-03-01T00:51:41;35.50;;;17.95;;
72427;SDS011;60419;48.880;18.036;2023-03-01T00:54:26;35.70;;;18.95;;
72427;SDS011;60419;48.880;18.036;2023-03-01T00:57:11;34.15;;;17.80;;
72427;SDS011;60419;48.880;18.036;2023-03-01T00:59:57;37.30;;;18.48;;
72427;SDS011;60419;48.880;18.036;2023-03-01T01:02:42;35.38;;;19.20;;
72427;SDS011;60419;48.880;18.036;2023-03-01T01:05:28;41.47;;;19.55;;
72427;SDS011;60419;48.880;18.036;2023-03-01T01:08:13;44.00;;;22.67;;
72427;SDS011;60419;48.880;18.036;2023-03-01T01:10:59;43.40;;;20.73;;
72427;SDS011;60419;48.880;18.036;2023-03-01T01:13:45;40.80;;;22.15;;
72427;SDS011;60419;48.880;18.036;2023-03-01T01:16:31;44.10;;;22.27;;
72427;SDS011;60419;48.880;18.036;2023-03-01T01:19:16;39.63;;;20.98;;
72427;SDS011;60419;48.880;18.036;2023-03-01T01:22:02;40.78;;;20.30;;
72427;SDS011;60419;48.880;18.036;2023-03-01T01:24:48;39.03;;;20.42;;
72427;SDS011;60419;48.880;18.036;2023-03-01T01:27:33;38.05;;;20.10;;
72427;SDS011;60419;48.880;18.036;2023-03-01T01:30:18;38.42;;;19.98;;
72427;SDS011;60419;48.880;18.036;2023-03-01T01:33:04;39.40;;;21.15;;
72427;SDS011;60419;48.880;18.036;2023-03-01T01:35:49;40.55;;;20.02;;
72427;SDS011;60419;48.880;18.036;2023-03-01T01:38:35;39.72;;;20.38;;
72427;SDS011;60419;48.880;18.036;2023-03-01T01:41:22;43.58;;;22.20;;
72427;SDS011;60419;48.880;18.036;2023-03-01T01:47:12;41.88;;;21.08;;
72427;SDS011;60419;48.880;18.036;2023-03-01T01:50:03;42.28;;;21.13;;
72427;SDS011;60419;48.880;18.036;2023-03-01T01:52:49;35.50;;;19.35;;
72427;SDS011;60419;48.880;18.036;2023-03-01T01:55:37;42.22;;;20.65;;
72427;SDS011;60419;48.880;18.036;2023-03-01T01:58:27;43.83;;;19.73;;
72427;SDS011;60419;48.880;18.036;2023-03-01T02:01:15;39.60;;;19.85;;
72427;SDS011;60419;48.880;18.036;2023-03-01T02:04:01;42.15;;;20.90;;
72427;SDS011;60419;48.880;18.036;2023-03-01T02:07:10;37.95;;;19.48;;
72427;SDS011;60419;48.880;18.036;2023-03-01T02:10:03;35.50;;;19.33;;
72427;SDS011;60419;48.880;18.036;2023-03-01T02:12:49;37.97;;;18.90;;
72427;SDS011;60419;48.880;18.036;2023-03-01T02:15:35;32.88;;;17.13;;
72427;SDS011;60419;48.880;18.036;2023-03-01T02:18:22;40.42;;;19.23;;
72427;SDS011;60419;48.880;18.036;2023-03-01T02:24:29;39.17;;;20.13;;
72427;SDS011;60419;48.880;18.036;2023-03-01T02:27:23;41.40;;;20.65;;
72427;SDS011;60419;48.880;18.036;2023-03-01T02:30:15;39.70;;;20.42;;
72427;SDS011;60419;48.880;18.036;2023-03-01T02:33:01;35.25;;;19.88;;
72427;SDS011;60419;48.880;18.036;2023-03-01T02:35:49;41.15;;;20.35;;
72427;SDS011;60419;48.880;18.036;2023-03-01T02:38:34;36.15;;;19.92;;
72427;SDS011;60419;48.880;18.036;2023-03-01T02:41:19;40.63;;;20.88;;
72427;SDS011;60419;48.880;18.036;2023-03-01T02:44:06;39.25;;;19.85;;
72427;SDS011;60419;48.880;18.036;2023-03-01T02:46:54;39.80;;;19.73;;
72427;SDS011;60419;48.880;18.036;2023-03-01T02:49:41;40.42;;;20.42;;
72427;SDS011;60419;48.880;18.036;2023-03-01T02:55:17;33.28;;;18.42;;
72427;SDS011;60419;48.880;18.036;2023-03-01T02:58:03;42.67;;;21.25;;
72427;SDS011;60419;48.880;18.036;2023-03-01T03:00:49;41.63;;;21.98;;
72427;SDS011;60419;48.880;18.036;2023-03-01T03:03:35;41.58;;;19.88;;
72427;SDS011;60419;48.880;18.036;2023-03-01T03:06:20;39.35;;;19.55;;
72427;SDS011;60419;48.880;18.036;2023-03-01T03:09:06;36.38;;;19.63;;
72427;SDS011;60419;48.880;18.036;2023-03-01T03:11:52;37.33;;;19.75;;
72427;SDS011;60419;48.880;18.036;2023-03-01T03:14:38;34.60;;;18.38;;
72427;SDS011;60419;48.880;18.036;2023-03-01T03:17:23;37.47;;;19.17;;
72427;SDS011;60419;48.880;18.036;2023-03-01T03:20:09;36.58;;;18.73;;
72427;SDS011;60419;48.880;18.036;2023-03-01T03:22:57;36.40;;;19.80;;
72427;SDS011;60419;48.880;18.036;2023-03-01T03:25:43;36.85;;;18.38;;
72427;SDS011;60419;48.880;18.036;2023-03-01T03:28:28;31.30;;;16.58;;
72427;SDS011;60419;48.880;18.036;2023-03-01T03:31:15;35.90;;;17.15;;
72427;SDS011;60419;48.880;18.036;2023-03-01T03:34:01;33.92;;;17.17;;
72427;SDS011;60419;48.880;18.036;2023-03-01T03:36:46;35.33;;;18.23;;
72427;SDS011;60419;48.880;18.036;2023-03-01T03:39:31;40.55;;;19.13;;
72427;SDS011;60419;48.880;18.036;2023-03-01T03:42:19;31.48;;;16.27;;
72427;SDS011;60419;48.880;18.036;2023-03-01T03:45:06;32.80;;;16.55;;
72427;SDS011;60419;48.880;18.036;2023-03-01T03:47:52;34.58;;;17.50;;
72427;SDS011;60419;48.880;18.036;2023-03-01T03:50:38;32.95;;;16.05;;
72427;SDS011;60419;48.880;18.036;2023-03-01T03:53:25;32.92;;;17.23;;
72427;SDS011;60419;48.880;18.036;2023-03-01T03:56:11;35.90;;;17.33;;
72427;SDS011;60419;48.880;18.036;2023-03-01T03:58:57;36.33;;;17.75;;
72427;SDS011;60419;48.880;18.036;2023-03-01T04:01:42;36.47;;;18.20;;
72427;SDS011;60419;48.880;18.036;2023-03-01T04:04:29;39.78;;;18.85;;
72427;SDS011;60419;48.880;18.036;2023-03-01T04:07:15;34.92;;;19.33;;
72427;SDS011;60419;48.880;18.036;2023-03-01T04:10:04;36.13;;;18.98;;
72427;SDS011;60419;48.880;18.036;2023-03-01T04:12:51;37.13;;;18.73;;
72427;SDS011;60419;48.880;18.036;2023-03-01T04:15:37;37.30;;;18.55;;
72427;SDS011;60419;48.880;18.036;2023-03-01T04:18:23;36.20;;;16.88;;
72427;SDS011;60419;48.880;18.036;2023-03-01T04:21:10;36.33;;;19.58;;
72427;SDS011;60419;48.880;18.036;2023-03-01T04:23:56;36.35;;;19.33;;
72427;SDS011;60419;48.880;18.036;2023-03-01T04:26:41;33.38;;;18.15;;
72427;SDS011;60419;48.880;18.036;2023-03-01T04:29:27;35.85;;;18.70;;
72427;SDS011;60419;48.880;18.036;2023-03-01T04:32:12;34.95;;;16.75;;
72427;SDS011;60419;48.880;18.036;2023-03-01T04:35:01;35.72;;;17.90;;
72427;SDS011;60419;48.880;18.036;2023-03-01T04:37:46;37.85;;;18.20;;
72427;SDS011;60419;48.880;18.036;2023-03-01T04:40:32;40.00;;;19.63;;
72427;SDS011;60419;48.880;18.036;2023-03-01T04:43:18;42.70;;;19.02;;
72427;SDS011;60419;48.880;18.036;2023-03-01T04:46:07;38.03;;;18.98;;
72427;SDS011;60419;48.880;18.036;2023-03-01T04:48:55;35.70;;;17.67;;
72427;SDS011;60419;48.880;18.036;2023-03-01T04:51:41;32.17;;;17.42;;
72427;SDS011;60419;48.880;18.036;2023-03-01T04:54:26;34.97;;;17.73;;
72427;SDS011;60419;48.880;18.036;2023-03-01T04:57:11;35.50;;;16.58;;
72427;SDS011;60419;48.880;18.036;2023-03-01T04:59:57;31.35;;;17.63;;
72427;SDS011;60419;48.880;18.036;2023-03-01T05:02:43;33.08;;;17.05;;
72427;SDS011;60419;48.880;18.036;2023-03-01T05:05:32;36.40;;;18.50;;
72427;SDS011;60419;48.880;18.036;2023-03-01T05:08:19;34.83;;;18.20;;
72427;SDS011;60419;48.880;18.036;2023-03-01T05:11:05;34.50;;;17.60;;
72427;SDS011;60419;48.880;18.036;2023-03-01T05:13:53;38.08;;;18.80;;
72427;SDS011;60419;48.880;18.036;2023-03-01T05:16:39;32.15;;;17.95;;
72427;SDS011;60419;48.880;18.036;2023-03-01T05:19:25;35.05;;;17.08;;
72427;SDS011;60419;48.880;18.036;2023-03-01T05:22:12;34.45;;;17.08;;
72427;SDS011;60419;48.880;18.036;2023-03-01T05:24:57;32.60;;;17.35;;
72427;SDS011;60419;48.880;18.036;2023-03-01T05:27:42;37.90;;;17.45;;
72427;SDS011;60419;48.880;18.036;2023-03-01T05:30:28;35.78;;;17.05;;
72427;SDS011;60419;48.880;18.036;2023-03-01T05:33:13;35.20;;;17.88;;
72427;SDS011;60419;48.880;18.036;2023-03-01T05:35:59;33.10;;;16.85;;
72427;SDS011;60419;48.880;18.036;2023-03-01T05:38:45;31.20;;;17.25;;
72427;SDS011;60419;48.880;18.036;2023-03-01T05:41:30;33.00;;;17.25;;
72427;SDS011;60419;48.880;18.036;2023-03-01T05:44:15;33.13;;;17.50;;
72427;SDS011;60419;48.880;18.036;2023-03-01T05:47:01;31.27;;;16.50;;
72427;SDS011;60419;48.880;18.036;2023-03-01T05:49:46;37.90;;;17.55;;
72427;SDS011;60419;48.880;18.036;2023-03-01T05:52:31;33.15;;;18.02;;
72427;SDS011;60419;48.880;18.036;2023-03-01T05:55:17;31.55;;;16.83;;
72427;SDS011;60419;48.880;18.036;2023-03-01T05:58:06;31.98;;;17.15;;
72427;SDS011;60419;48.880;18.036;2023-03-01T06:00:54;35.38;;;16.58;;
72427;SDS011;60419;48.880;18.036;2023-03-01T06:03:39;35.83;;;17.65;;
72427;SDS011;60419;48.880;18.036;2023-03-01T06:06:25;34.55;;;17.90;;
72427;SDS011;60419;48.880;18.036;2023-03-01T06:09:10;33.83;;;18.88;;
72427;SDS011;60419;48.880;18.036;2023-03-01T06:11:55;35.05;;;17.15;;
72427;SDS011;60419;48.880;18.036;2023-03-01T06:14:41;31.38;;;15.90;;
72427;SDS011;60419;48.880;18.036;2023-03-01T06:17:28;34.38;;;16.55;;
72427;SDS011;60419;48.880;18.036;2023-03-01T06:20:18;34.80;;;17.15;;
72427;SDS011;60419;48.880;18.036;2023-03-01T06:23:05;33.17;;;16.00;;
72427;SDS011;60419;48.880;18.036;2023-03-01T06:25:50;36.45;;;16.10;;
72427;SDS011;60419;48.880;18.036;2023-03-01T06:28:36;31.15;;;16.27;;
72427;SDS011;60419;48.880;18.036;2023-03-01T06:31:21;35.83;;;16.02;;
72427;SDS011;60419;48.880;18.036;2023-03-01T06:34:06;36.90;;;15.98;;
72427;SDS011;60419;48.880;18.036;2023-03-01T06:36:52;38.50;;;18.65;;
72427;SDS011;60419;48.880;18.036;2023-03-01T06:39:37;37.28;;;17.90;;
72427;SDS011;60419;48.880;18.036;2023-03-01T06:42:22;38.47;;;18.52;;
72427;SDS011;60419;48.880;18.036;2023-03-01T06:45:08;35.75;;;16.60;;
72427;SDS011;60419;48.880;18.036;2023-03-01T06:48:00;34.65;;;16.15;;
72427;SDS011;60419;48.880;18.036;2023-03-01T06:50:47;32.70;;;17.15;;
72427;SDS011;60419;48.880;18.036;2023-03-01T06:53:32;34.00;;;17.75;;
72427;SDS011;60419;48.880;18.036;2023-03-01T06:56:18;32.83;;;16.92;;
72427;SDS011;60419;48.880;18.036;2023-03-01T06:59:03;30.70;;;16.55;;
72427;SDS011;60419;48.880;18.036;2023-03-01T07:01:48;32.63;;;16.77;;
72427;SDS011;60419;48.880;18.036;2023-03-01T07:04:33;31.38;;;17.08;;
72427;SDS011;60419;48.880;18.036;2023-03-01T07:07:19;32.03;;;17.20;;
72427;SDS011;60419;48.880;18.036;2023-03-01T07:10:05;29.02;;;15.25;;
72427;SDS011;60419;48.880;18.036;2023-03-01T07:12:54;30.85;;;15.90;;
72427;SDS011;60419;48.880;18.036;2023-03-01T07:15:40;31.55;;;14.90;;
72427;SDS011;60419;48.880;18.036;2023-03-01T07:18:25;26.70;;;14.15;;
72427;SDS011;60419;48.880;18.036;2023-03-01T07:21:11;32.53;;;15.82;;
72427;SDS011;60419;48.880;18.036;2023-03-01T07:23:57;28.80;;;14.90;;
72427;SDS011;60419;48.880;18.036;2023-03-01T07:26:43;30.45;;;15.00;;
72427;SDS011;60419;48.880;18.036;2023-03-01T07:29:28;31.08;;;16.50;;
72427;SDS011;60419;48.880;18.036;2023-03-01T07:32:14;28.25;;;14.70;;
72427;SDS011;60419;48.880;18.036;2023-03-01T07:34:59;27.65;;;15.95;;
72427;SDS011;60419;48.880;18.036;2023-03-01T07:37:44;28.15;;;14.70;;
72427;SDS011;60419;48.880;18.036;2023-03-01T07:40:30;27.40;;;14.55;;
72427;SDS011;60419;48.880;18.036;2023-03-01T07:43:15;34.53;;;16.58;;
72427;SDS011;60419;48.880;18.036;2023-03-01T07:46:01;32.67;;;15.52;;
72427;SDS011;60419;48.880;18.036;2023-03-01T07:48:47;33.75;;;15.27;;
72427;SDS011;60419;48.880;18.036;2023-03-01T07:51:32;35.65;;;15.38;;
72427;SDS011;60419;48.880;18.036;2023-03-01T07:54:18;31.13;;;14.65;;
72427;SDS011;60419;48.880;18.036;2023-03-01T07:57:03;29.58;;;14.95;;
72427;SDS011;60419;48.880;18.036;2023-03-01T07:59:48;30.00;;;15.75;;
72427;SDS011;60419;48.880;18.036;2023-03-01T08:02:34;30.65;;;15.48;;
72427;SDS011;60419;48.880;18.036;2023-03-01T08:05:19;30.83;;;15.43;;
72427;SDS011;60419;48.880;18.036;2023-03-01T08:08:07;21.77;;;11.68;;
72427;SDS011;60419;48.880;18.036;2023-03-01T08:10:52;33.85;;;15.38;;
72427;SDS011;60419;48.880;18.036;2023-03-01T08:13:37;33.03;;;15.43;;
72427;SDS011;60419;48.880;18.036;2023-03-01T08:16:23;28.15;;;14.05;;
72427;SDS011;60419;48.880;18.036;2023-03-01T08:19:10;30.90;;;14.57;;
72427;SDS011;60419;48.880;18.036;2023-03-01T08:21:57;32.47;;;15.15;;
72427;SDS011;60419;48.880;18.036;2023-03-01T08:24:43;29.85;;;16.17;;
72427;SDS011;60419;48.880;18.036;2023-03-01T08:27:28;25.65;;;13.68;;
72427;SDS011;60419;48.880;18.036;2023-03-01T08:30:13;26.08;;;13.77;;
72427;SDS011;60419;48.880;18.036;2023-03-01T08:32:59;28.63;;;14.32;;
72427;SDS011;60419;48.880;18.036;2023-03-01T08:35:44;20.88;;;11.05;;
72427;SDS011;60419;48.880;18.036;2023-03-01T08:38:29;28.33;;;14.50;;
72427;SDS011;60419;48.880;18.036;2023-03-01T08:41:15;29.63;;;14.07;;
72427;SDS011;60419;48.880;18.036;2023-03-01T08:44:00;28.55;;;14.60;;
72427;SDS011;60419;48.880;18.036;2023-03-01T08:46:46;30.88;;;14.20;;
72427;SDS011;60419;48.880;18.036;2023-03-01T08:49:31;24.77;;;13.30;;
72427;SDS011;60419;48.880;18.036;2023-03-01T08:52:17;28.15;;;14.73;;
72427;SDS011;60419;48.880;18.036;2023-03-01T08:55:04;23.30;;;13.38;;
72427;SDS011;60419;48.880;18.036;2023-03-01T08:57:49;24.02;;;13.32;;
72427;SDS011;60419;48.880;18.036;2023-03-01T09:00:35;23.67;;;12.43;;
72427;SDS011;60419;48.880;18.036;2023-03-01T09:03:20;27.38;;;13.13;;
72427;SDS011;60419;48.880;18.036;2023-03-01T09:06:06;17.83;;;9.80;;
72427;SDS011;60419;48.880;18.036;2023-03-01T09:08:52;25.60;;;12.73;;
72427;SDS011;60419;48.880;18.036;2023-03-01T09:11:39;26.00;;;12.43;;
72427;SDS011;60419;48.880;18.036;2023-03-01T09:14:26;23.05;;;12.32;;
72427;SDS011;60419;48.880;18.036;2023-03-01T09:17:11;19.20;;;9.73;;
72427;SDS011;60419;48.880;18.036;2023-03-01T09:19:56;25.63;;;12.50;;
72427;SDS011;60419;48.880;18.036;2023-03-01T09:22:42;23.35;;;11.18;;
72427;SDS011;60419;48.880;18.036;2023-03-01T09:25:27;25.38;;;12.35;;
72427;SDS011;60419;48.880;18.036;2023-03-01T09:28:13;22.05;;;10.10;;
72427;SDS011;60419;48.880;18.036;2023-03-01T09:30:59;23.15;;;11.40;;
72427;SDS011;60419;48.880;18.036;2023-03-01T09:33:48;23.67;;;11.93;;
72427;SDS011;60419;48.880;18.036;2023-03-01T09:36:35;24.35;;;13.30;;
72427;SDS011;60419;48.880;18.036;2023-03-01T09:39:21;20.58;;;9.98;;
72427;SDS011;60419;48.880;18.036;2023-03-01T09:42:06;22.25;;;12.73;;
72427;SDS011;60419;48.880;18.036;2023-03-01T09:45:06;21.93;;;12.07;;
72427;SDS011;60419;48.880;18.036;2023-03-01T09:48:00;23.65;;;12.43;;
72427;SDS011;60419;48.880;18.036;2023-03-01T09:50:47;21.75;;;12.02;;
72427;SDS011;60419;48.880;18.036;2023-03-01T09:53:33;23.58;;;13.63;;
72427;SDS011;60419;48.880;18.036;2023-03-01T10:05:31;26.75;;;12.27;;
72427;SDS011;60419;48.880;18.036;2023-03-01T10:08:24;23.30;;;11.77;;
72427;SDS011;60419;48.880;18.036;2023-03-01T10:11:59;24.88;;;13.65;;
72427;SDS011;60419;48.880;18.036;2023-03-01T10:17:34;24.30;;;13.13;;
72427;SDS011;60419;48.880;18.036;2023-03-01T10:20:25;23.48;;;12.60;;
72427;SDS011;60419;48.880;18.036;2023-03-01T10:23:15;23.88;;;12.25;;
72427;SDS011;60419;48.880;18.036;2023-03-01T10:29:19;24.13;;;13.03;;
72427;SDS011;60419;48.880;18.036;2023-03-01T10:31:58;25.80;;;14.05;;
72427;SDS011;60419;48.880;18.036;2023-03-01T10:34:43;24.67;;;13.73;;
72427;SDS011;60419;48.880;18.036;2023-03-01T10:37:28;25.52;;;13.35;;
72427;SDS011;60419;48.880;18.036;2023-03-01T10:40:14;24.13;;;12.80;;
72427;SDS011;60419;48.880;18.036;2023-03-01T10:43:01;21.92;;;12.82;;
72427;SDS011;60419;48.880;18.036;2023-03-01T10:45:48;24.45;;;14.43;;
72427;SDS011;60419;48.880;18.036;2023-03-01T10:48:34;22.65;;;12.70;;
72427;SDS011;60419;48.880;18.036;2023-03-01T10:51:19;24.42;;;13.38;;
72427;SDS011;60419;48.880;18.036;2023-03-01T10:54:05;21.75;;;12.82;;
72427;SDS011;60419;48.880;18.036;2023-03-01T10:57:01;26.98;;;13.35;;
72427;SDS011;60419;48.880;18.036;2023-03-01T10:59:51;20.05;;;12.75;;
72427;SDS011;60419;48.880;18.036;2023-03-01T11:06:02;23.58;;;11.82;;
72427;SDS011;60419;48.880;18.036;2023-03-01T11:08:50;25.05;;;13.13;;
72427;SDS011;60419;48.880;18.036;2023-03-01T11:11:36;23.88;;;12.60;;
72427;SDS011;60419;48.880;18.036;2023-03-01T11:14:22;20.52;;;11.45;;
72427;SDS011;60419;48.880;18.036;2023-03-01T11:17:16;21.98;;;10.35;;
72427;SDS011;60419;48.880;18.036;2023-03-01T11:23:08;21.17;;;12.52;;
72427;SDS011;60419;48.880;18.036;2023-03-01T11:26:05;21.02;;;11.55;;
72427;SDS011;60419;48.880;18.036;2023-03-01T11:28:54;21.20;;;11.25;;
72427;SDS011;60419;48.880;18.036;2023-03-01T11:31:43;23.70;;;11.82;;
72427;SDS011;60419;48.880;18.036;2023-03-01T11:40:26;21.15;;;10.60;;
72427;SDS011;60419;48.880;18.036;2023-03-01T11:47:11;19.08;;;11.10;;
72427;SDS011;60419;48.880;18.036;2023-03-01T11:50:09;19.65;;;10.98;;
72427;SDS011;60419;48.880;18.036;2023-03-01T11:53:09;21.58;;;11.07;;
72427;SDS011;60419;48.880;18.036;2023-03-01T12:11:15;17.65;;;11.80;;
72427;SDS011;60419;48.880;18.036;2023-03-01T12:14:39;18.77;;;11.13;;
72427;SDS011;60419;48.880;18.036;2023-03-01T12:24:23;15.02;;;9.02;;
72427;SDS011;60419;48.880;18.036;2023-03-01T12:49:54;8.32;;;4.32;;
72427;SDS011;60419;48.880;18.036;2023-03-01T12:55:39;7.18;;;4.03;;
72427;SDS011;60419;48.880;18.036;2023-03-01T12:58:29;7.35;;;3.60;;
72427;SDS011;60419;48.880;18.036;2023-03-01T13:04:22;6.82;;;3.78;;
72427;SDS011;60419;48.880;18.036;2023-03-01T13:07:16;9.32;;;4.97;;
72427;SDS011;60419;48.880;18.036;2023-03-01T13:13:27;7.78;;;4.07;;
72427;SDS011;60419;48.880;18.036;2023-03-01T13:19:21;5.90;;;3.60;;
72427;SDS011;60419;48.880;18.036;2023-03-01T13:22:30;7.93;;;3.50;;
72427;SDS011;60419;48.880;18.036;2023-03-01T13:25:18;4.45;;;2.83;;
72427;SDS011;60419;48.880;18.036;2023-03-01T13:28:39;7.55;;;3.80;;
72427;SDS011;60419;48.880;18.036;2023-03-01T13:34:06;4.85;;;3.00;;
72427;SDS011;60419;48.880;18.036;2023-03-01T13:37:39;5.28;;;3.15;;
72427;SDS011;60419;48.880;18.036;2023-03-01T13:43:23;5.85;;;3.10;;
72427;SDS011;60419;48.880;18.036;2023-03-01T13:46:18;7.18;;;3.17;;
72427;SDS011;60419;48.880;18.036;2023-03-01T13:49:09;6.75;;;3.10;;
72427;SDS011;60419;48.880;18.036;2023-03-01T13:52:00;5.65;;;3.40;;
72427;SDS011;60419;48.880;18.036;2023-03-01T13:54:47;5.60;;;2.75;;
72427;SDS011;60419;48.880;18.036;2023-03-01T13:57:33;5.00;;;3.03;;
72427;SDS011;60419;48.880;18.036;2023-03-01T14:00:39;6.45;;;3.20;;
72427;SDS011;60419;48.880;18.036;2023-03-01T14:03:25;5.25;;;3.08;;
72427;SDS011;60419;48.880;18.036;2023-03-01T14:06:15;5.55;;;3.05;;
72427;SDS011;60419;48.880;18.036;2023-03-01T14:09:05;5.10;;;2.95;;
72427;SDS011;60419;48.880;18.036;2023-03-01T14:15:01;6.20;;;3.00;;
72427;SDS011;60419;48.880;18.036;2023-03-01T14:21:32;5.18;;;3.03;;
72427;SDS011;60419;48.880;18.036;2023-03-01T14:24:18;5.80;;;3.25;;
72427;SDS011;60419;48.880;18.036;2023-03-01T14:27:12;6.38;;;3.10;;
72427;SDS011;60419;48.880;18.036;2023-03-01T14:30:00;8.38;;;3.80;;
72427;SDS011;60419;48.880;18.036;2023-03-01T14:32:55;7.65;;;3.75;;
72427;SDS011;60419;48.880;18.036;2023-03-01T14:35:42;7.38;;;3.15;;
72427;SDS011;60419;48.880;18.036;2023-03-01T14:38:40;6.47;;;3.30;;
72427;SDS011;60419;48.880;18.036;2023-03-01T14:44:19;10.02;;;3.58;;
72427;SDS011;60419;48.880;18.036;2023-03-01T14:47:11;5.50;;;3.40;;
72427;SDS011;60419;48.880;18.036;2023-03-01T14:50:00;6.90;;;3.65;;
72427;SDS011;60419;48.880;18.036;2023-03-01T14:52:50;5.88;;;3.67;;
72427;SDS011;60419;48.880;18.036;2023-03-01T14:55:41;6.13;;;3.70;;
72427;SDS011;60419;48.880;18.036;2023-03-01T14:58:31;6.25;;;3.58;;
72427;SDS011;60419;48.880;18.036;2023-03-01T15:01:18;9.35;;;4.32;;
72427;SDS011;60419;48.880;18.036;2023-03-01T15:04:04;8.68;;;3.70;;
72427;SDS011;60419;48.880;18.036;2023-03-01T15:06:51;7.25;;;3.40;;
72427;SDS011;60419;48.880;18.036;2023-03-01T15:09:39;5.70;;;3.35;;
72427;SDS011;60419;48.880;18.036;2023-03-01T15:18:06;8.73;;;3.72;;
72427;SDS011;60419;48.880;18.036;2023-03-01T15:21:07;6.90;;;4.18;;
72427;SDS011;60419;48.880;18.036;2023-03-01T15:27:15;6.72;;;3.78;;
72427;SDS011;60419;48.880;18.036;2023-03-01T15:30:03;7.05;;;3.90;;
72427;SDS011;60419;48.880;18.036;2023-03-01T15:32:59;6.50;;;3.80;;
72427;SDS011;60419;48.880;18.036;2023-03-01T15:39:27;7.55;;;4.10;;
72427;SDS011;60419;48.880;18.036;2023-03-01T15:48:14;9.48;;;4.75;;
72427;SDS011;60419;48.880;18.036;2023-03-01T15:51:02;6.43;;;4.10;;
72427;SDS011;60419;48.880;18.036;2023-03-01T15:53:49;12.20;;;5.85;;
72427;SDS011;60419;48.880;18.036;2023-03-01T15:56:37;19.33;;;12.55;;
72427;SDS011;60419;48.880;18.036;2023-03-01T15:59:22;24.38;;;15.55;;
72427;SDS011;60419;48.880;18.036;2023-03-01T16:02:11;28.00;;;16.65;;
72427;SDS011;60419;48.880;18.036;2023-03-01T16:04:57;29.45;;;17.90;;
72427;SDS011;60419;48.880;18.036;2023-03-01T16:07:42;30.52;;;17.83;;
72427;SDS011;60419;48.880;18.036;2023-03-01T16:10:28;31.00;;;18.83;;
72427;SDS011;60419;48.880;18.036;2023-03-01T16:13:15;31.10;;;18.33;;
72427;SDS011;60419;48.880;18.036;2023-03-01T16:16:00;30.70;;;18.20;;
72427;SDS011;60419;48.880;18.036;2023-03-01T16:18:46;29.20;;;18.85;;
72427;SDS011;60419;48.880;18.036;2023-03-01T16:21:31;30.35;;;17.75;;
72427;SDS011;60419;48.880;18.036;2023-03-01T16:24:17;32.40;;;17.73;;
72427;SDS011;60419;48.880;18.036;2023-03-01T16:27:02;30.17;;;17.95;;
72427;SDS011;60419;48.880;18.036;2023-03-01T16:29:48;29.92;;;18.23;;
72427;SDS011;60419;48.880;18.036;2023-03-01T16:32:37;32.70;;;19.00;;
72427;SDS011;60419;48.880;18.036;2023-03-01T16:35:27;28.10;;;17.33;;
72427;SDS011;60419;48.880;18.036;2023-03-01T16:38:12;30.08;;;17.55;;
72427;SDS011;60419;48.880;18.036;2023-03-01T16:40:57;34.65;;;19.30;;
72427;SDS011;60419;48.880;18.036;2023-03-01T16:43:43;30.40;;;18.45;;
72427;SDS011;60419;48.880;18.036;2023-03-01T16:46:31;35.92;;;20.30;;
72427;SDS011;60419;48.880;18.036;2023-03-01T16:49:16;36.63;;;20.08;;
72427;SDS011;60419;48.880;18.036;2023-03-01T16:52:02;39.65;;;20.95;;
72427;SDS011;60419;48.880;18.036;2023-03-01T16:54:47;37.17;;;21.45;;
72427;SDS011;60419;48.880;18.036;2023-03-01T16:57:33;35.63;;;21.58;;
72427;SDS011;60419;48.880;18.036;2023-03-01T17:00:19;34.50;;;20.80;;
72427;SDS011;60419;48.880;18.036;2023-03-01T17:03:05;35.40;;;21.25;;
72427;SDS011;60419;48.880;18.036;2023-03-01T17:05:51;39.03;;;21.35;;
72427;SDS011;60419;48.880;18.036;2023-03-01T17:08:37;38.85;;;21.30;;
72427;SDS011;60419;48.880;18.036;2023-03-01T17:11:23;37.03;;;20.75;;
72427;SDS011;60419;48.880;18.036;2023-03-01T17:14:08;41.53;;;21.50;;
72427;SDS011;60419;48.880;18.036;2023-03-01T17:16:54;41.15;;;21.40;;
72427;SDS011;60419;48.880;18.036;2023-03-01T17:19:39;40.88;;;21.23;;
72427;SDS011;60419;48.880;18.036;2023-03-01T17:22:26;39.90;;;21.00;;
72427;SDS011;60419;48.880;18.036;2023-03-01T17:25:11;42.65;;;22.08;;
72427;SDS011;60419;48.880;18.036;2023-03-01T17:27:57;41.85;;;23.77;;
72427;SDS011;60419;48.880;18.036;2023-03-01T17:30:43;41.63;;;22.13;;
72427;SDS011;60419;48.880;18.036;2023-03-01T17:33:31;38.17;;;22.27;;
72427;SDS011;60419;48.880;18.036;2023-03-01T17:36:17;42.97;;;23.80;;
72427;SDS011;60419;48.880;18.036;2023-03-01T17:39:02;47.05;;;24.02;;
72427;SDS011;60419;48.880;18.036;2023-03-01T17:41:48;40.67;;;23.08;;
72427;SDS011;60419;48.880;18.036;2023-03-01T17:44:33;39.35;;;22.17;;
72427;SDS011;60419;48.880;18.036;2023-03-01T17:47:18;39.45;;;22.77;;
72427;SDS011;60419;48.880;18.036;2023-03-01T17:50:04;40.10;;;22.80;;
72427;SDS011;60419;48.880;18.036;2023-03-01T17:52:50;42.05;;;23.27;;
72427;SDS011;60419;48.880;18.036;2023-03-01T17:55:36;39.53;;;22.98;;
72427;SDS011;60419;48.880;18.036;2023-03-01T17:58:22;44.20;;;25.45;;
72427;SDS011;60419;48.880;18.036;2023-03-01T18:03:54;35.10;;;19.23;;
72427;SDS011;60419;48.880;18.036;2023-03-01T18:06:39;35.72;;;20.85;;
72427;SDS011;60419;48.880;18.036;2023-03-01T18:09:26;40.35;;;19.05;;
72427;SDS011;60419;48.880;18.036;2023-03-01T18:12:12;36.25;;;19.52;;
72427;SDS011;60419;48.880;18.036;2023-03-01T18:14:57;37.58;;;21.02;;
72427;SDS011;60419;48.880;18.036;2023-03-01T18:17:43;44.35;;;22.05;;
72427;SDS011;60419;48.880;18.036;2023-03-01T18:20:28;39.13;;;21.90;;
72427;SDS011;60419;48.880;18.036;2023-03-01T18:23:14;38.53;;;21.08;;
72427;SDS011;60419;48.880;18.036;2023-03-01T18:26:03;38.50;;;20.75;;